Time;durP1;ratioP1;P1;durP2;ratioP2;P2;SDS_P1;SDS_P2;PMS_P1;PMS_P2;Temp;Humidity;BMP_temperature;BMP_pressure;BME280_temperature;BME280_humidity;BME280_pressure;Samples;Min_cycle;Max_cycle;Signal;HPM_P1;HPM_P2
2021/01/27 00:00:15;;;;;;;46.30;24.73;;;;;;;-0.19;79.36;99282.85;124822;1105;104222;-81
2021/01/27 00:03:04;;;;;;;44.83;23.97;;;;;;;-0.18;79.43;99287.12;124777;1103;104588;-81
2021/01/27 00:05:39;;;;;;;46.27;24.80;;;;;;;-0.18;79.56;99275.19;124854;1102;102347;-80
2021/01/27 00:08:07;;;;;;;45.40;24.33;;;;;;;-0.19;79.03;99283.70;124804;1105;104223;-81
2021/01/27 00:10:36;;;;;;;46.53;23.83;;;;;;;-0.17;78.88;99284.58;124746;1106;104216;-80
2021/01/27 00:13:07;;;;;;;47.40;25.60;;;;;;;-0.17;79.66;99286.30;124827;1105;104198;-80
2021/01/27 00:15:36;;;;;;;43.27;23.90;;;;;;;-0.16;79.60;99288.84;124864;1105;104749;-80
2021/01/27 00:18:07;;;;;;;43.77;23.73;;;;;;;-0.15;79.45;99284.57;124913;1102;104124;-80
2021/01/27 00:20:34;;;;;;;42.30;23.33;;;;;;;-0.14;79.06;99286.27;124838;1105;104231;-81
2021/01/27 00:23:02;;;;;;;45.97;25.40;;;;;;;-0.14;79.44;99288.84;124827;1102;103944;-80
2021/01/27 00:25:32;;;;;;;45.93;24.70;;;;;;;-0.14;79.41;99281.15;124902;1105;103932;-80
2021/01/27 00:27:59;;;;;;;49.87;25.20;;;;;;;-0.14;79.62;99282.00;124908;1105;104213;-81
2021/01/27 00:30:30;;;;;;;46.17;24.83;;;;;;;-0.14;79.54;99287.13;124817;1105;104156;-80
2021/01/27 00:32:59;;;;;;;40.10;22.00;;;;;;;-0.12;79.86;99289.68;124853;1105;104245;-80
2021/01/27 00:35:30;;;;;;;42.60;22.47;;;;;;;-0.13;79.47;99282.84;124769;1102;104226;-81
2021/01/27 00:38:00;;;;;;;48.30;27.07;;;;;;;-0.13;79.72;99287.98;124820;1105;104672;-80
2021/01/27 00:40:27;;;;;;;42.85;23.75;;;;;;;-0.12;79.95;99285.41;124851;1103;104794;-81
2021/01/27 00:42:54;;;;;;;48.50;26.30;;;;;;;-0.11;80.16;99281.12;124824;1102;104169;-81
2021/01/27 00:45:22;;;;;;;47.93;25.77;;;;;;;-0.11;80.03;99276.85;124963;1105;104268;-81
2021/01/27 00:47:49;;;;;;;45.70;24.45;;;;;;;-0.12;80.05;99275.16;124897;1105;104175;-80
2021/01/27 00:50:17;;;;;;;44.07;24.47;;;;;;;-0.13;80.22;99278.58;124920;1105;104197;-80
2021/01/27 00:52:46;;;;;;;48.63;26.93;;;;;;;-0.13;79.79;99278.58;124929;1105;104131;-80
2021/01/27 00:55:20;;;;;;;48.60;25.80;;;;;;;-0.11;80.31;99268.31;124905;1105;104143;-80
2021/01/27 00:57:49;;;;;;;43.85;25.32;;;;;;;-0.13;79.94;99268.33;124979;1103;103028;-81
2021/01/27 01:00:26;;;;;;;45.17;25.13;;;;;;;-0.12;80.41;99270.02;124855;1105;104210;-81
2021/01/27 01:02:54;;;;;;;45.30;25.23;;;;;;;-0.11;80.31;99270.88;124922;1105;103992;-81
2021/01/27 01:05:33;;;;;;;50.87;27.13;;;;;;;-0.11;80.06;99265.75;124924;1102;104105;-81
2021/01/27 01:08:01;;;;;;;41.77;22.30;;;;;;;-0.13;80.07;99273.45;124948;1102;104216;-81
2021/01/27 01:10:32;;;;;;;43.43;23.97;;;;;;;-0.15;80.31;99267.48;124907;1104;104172;-80
2021/01/27 01:13:01;;;;;;;47.73;24.87;;;;;;;-0.15;79.90;99277.73;124922;1105;104265;-81
2021/01/27 01:15:29;;;;;;;47.50;24.90;;;;;;;-0.15;80.17;99272.61;124862;1102;104233;-81
2021/01/27 01:17:57;;;;;;;47.97;25.30;;;;;;;-0.15;79.89;99267.48;124908;1105;104166;-80
2021/01/27 01:20:25;;;;;;;41.50;23.03;;;;;;;-0.13;79.98;99270.89;124968;1103;104163;-80
2021/01/27 01:22:55;;;;;;;44.60;26.27;;;;;;;-0.12;80.21;99274.30;124899;1105;104274;-80
2021/01/27 01:25:26;;;;;;;44.10;25.65;;;;;;;-0.11;80.50;99276.85;124889;1105;104098;-80
2021/01/27 01:27:54;;;;;;;43.87;23.57;;;;;;;-0.10;79.99;99268.30;124884;1105;104028;-80
2021/01/27 01:30:28;;;;;;;46.57;24.80;;;;;;;-0.10;80.37;99283.68;124835;1102;104216;-81
2021/01/27 01:32:58;;;;;;;43.87;24.10;;;;;;;-0.11;80.22;99271.73;124847;1105;104110;-81
2021/01/27 01:35:26;;;;;;;43.87;24.53;;;;;;;-0.11;80.41;99270.88;124886;1105;104217;-81
2021/01/27 01:37:54;;;;;;;42.07;23.10;;;;;;;-0.11;80.43;99278.56;124892;1105;104073;-81
2021/01/27 01:40:29;;;;;;;40.10;23.70;;;;;;;-0.10;80.27;99268.30;124906;1105;104184;-81
2021/01/27 01:43:18;;;;;;;41.80;23.60;;;;;;;-0.09;80.17;99275.13;124906;1104;104099;-80
2021/01/27 01:45:53;;;;;;;39.97;23.33;;;;;;;-0.10;80.28;99270.87;124922;1102;104172;-80
2021/01/27 01:48:37;;;;;;;42.07;23.90;;;;;;;-0.10;80.28;99270.87;124846;1105;104228;-80
2021/01/27 01:51:34;;;;;;;39.93;23.13;;;;;;;-0.08;80.40;99279.39;124830;1106;104281;-80
2021/01/27 01:54:09;;;;;;;35.43;21.12;;;;;;;-0.09;80.36;99277.69;124929;1105;104207;-80
2021/01/27 01:56:40;;;;;;;40.37;22.30;;;;;;;-0.09;80.40;99280.26;124900;1105;104123;-81
2021/01/27 01:59:11;;;;;;;38.40;21.40;;;;;;;-0.07;80.08;99272.55;124922;1106;104955;-80
2021/01/27 02:01:41;;;;;;;43.43;23.37;;;;;;;-0.07;80.25;99267.43;124895;1105;104209;-80
2021/01/27 02:04:09;;;;;;;40.40;23.60;;;;;;;-0.05;80.45;99275.96;124874;1105;103964;-81
2021/01/27 02:06:36;;;;;;;39.38;22.32;;;;;;;-0.05;80.59;99281.94;124888;1105;104114;-80
2021/01/27 02:09:05;;;;;;;42.03;22.97;;;;;;;-0.05;80.13;99269.13;124860;1103;104178;-80
2021/01/27 02:11:50;;;;;;;39.55;22.65;;;;;;;-0.05;80.24;99283.66;124919;1103;104188;-80
2021/01/27 02:14:48;;;;;;;36.57;20.90;;;;;;;-0.05;80.31;99275.96;124852;1102;104265;-80
2021/01/27 02:17:30;;;;;;;44.20;24.47;;;;;;;-0.04;80.32;99278.52;124899;1102;104272;-80
2021/01/27 02:20:28;;;;;;;38.13;21.13;;;;;;;-0.03;80.24;99277.66;124926;1105;104156;-80
2021/01/27 02:23:32;;;;;;;39.45;22.40;;;;;;;-0.05;80.18;99291.34;124665;1106;104340;-81
2021/01/27 02:26:21;;;;;;;42.13;22.73;;;;;;;-0.04;80.12;99290.48;124890;1106;104127;-80
2021/01/27 02:29:01;;;;;;;41.25;22.05;;;;;;;-0.03;80.03;99287.91;124614;1108;104321;-81
2021/01/27 02:31:28;;;;;;;41.47;22.83;;;;;;;-0.04;80.59;99281.08;124588;1109;104290;-81
2021/01/27 02:34:23;;;;;;;39.03;21.60;;;;;;;-0.01;80.41;99283.62;124747;1106;104114;-81
2021/01/27 02:37:04;;;;;;;40.00;22.93;;;;;;;-0.02;80.32;99281.92;124698;1109;104127;-80
2021/01/27 02:39:36;;;;;;;38.10;22.30;;;;;;;0.02;80.43;99285.34;124660;1105;102306;-80
2021/01/27 02:42:12;;;;;;;35.03;19.93;;;;;;;0.02;80.58;99282.78;124702;1106;104412;-81
2021/01/27 02:44:50;;;;;;;40.70;22.97;;;;;;;0.02;80.63;99289.63;124654;1109;102286;-81
2021/01/27 02:47:26;;;;;;;36.53;21.53;;;;;;;0.04;80.13;99285.33;124666;1109;106037;-80
2021/01/27 02:50:07;;;;;;;36.50;21.50;;;;;;;0.04;80.02;99280.20;124716;1106;102910;-80
2021/01/27 02:52:44;;;;;;;38.00;21.60;;;;;;;0.04;80.11;99281.06;124620;1106;104630;-80
2021/01/27 02:55:17;;;;;;;32.97;20.17;;;;;;;0.08;80.30;99281.89;124664;1108;103667;-81
2021/01/27 02:57:54;;;;;;;34.93;19.90;;;;;;;0.06;79.95;99284.46;124616;1109;104281;-80
2021/01/27 03:00:27;;;;;;;35.40;20.00;;;;;;;0.08;79.83;99281.89;124760;1106;103953;-80
2021/01/27 03:03:19;;;;;;;32.83;18.57;;;;;;;0.09;79.95;99281.88;124913;1105;104146;-80
2021/01/27 03:05:52;;;;;;;32.33;18.67;;;;;;;0.10;80.05;99298.11;124909;1105;104117;-80
2021/01/27 03:08:24;;;;;;;31.27;16.83;;;;;;;0.11;79.90;99292.13;124934;1106;104293;-80
2021/01/27 03:11:09;;;;;;;27.27;17.07;;;;;;;0.12;79.85;99293.82;124852;1105;104198;-81
2021/01/27 03:13:39;;;;;;;31.10;17.43;;;;;;;0.10;79.76;99282.73;124878;1102;104240;-80
2021/01/27 03:16:12;;;;;;;28.13;17.13;;;;;;;0.11;79.29;99289.56;124927;1103;104500;-79
2021/01/27 03:18:43;;;;;;;28.35;17.30;;;;;;;0.11;79.66;99277.59;124895;1105;104102;-80
2021/01/27 03:21:20;;;;;;;28.50;17.83;;;;;;;0.12;79.01;99293.82;124944;1105;103158;-80
2021/01/27 03:23:52;;;;;;;27.43;15.60;;;;;;;0.11;79.43;99298.10;124868;1105;104226;-80
2021/01/27 03:26:32;;;;;;;29.70;16.03;;;;;;;0.13;79.05;99300.66;124879;1105;104187;-80
2021/01/27 03:29:03;;;;;;;27.77;15.87;;;;;;;0.15;78.78;99298.92;124836;1102;103999;-80
2021/01/27 03:31:30;;;;;;;24.47;15.13;;;;;;;0.16;79.12;99310.89;124918;1105;104121;-80
2021/01/27 03:34:07;;;;;;;28.13;16.13;;;;;;;0.18;78.59;99304.03;124875;1105;104918;-80
2021/01/27 03:36:44;;;;;;;24.50;15.30;;;;;;;0.20;78.61;99299.78;124833;1103;104200;-80
2021/01/27 03:39:14;;;;;;;24.63;14.97;;;;;;;0.21;78.82;99304.05;124865;1102;104657;-80
2021/01/27 03:41:48;;;;;;;23.43;13.53;;;;;;;0.23;78.60;99302.32;124928;1102;102814;-80
2021/01/27 03:44:28;;;;;;;25.27;15.47;;;;;;;0.21;78.54;99307.46;124936;1102;102177;-80
2021/01/27 03:47:23;;;;;;;21.90;13.63;;;;;;;0.21;78.65;99310.02;124903;1105;104210;-80
2021/01/27 03:49:56;;;;;;;22.80;13.97;;;;;;;0.22;78.21;99310.88;124808;1103;103932;-80
2021/01/27 03:52:37;;;;;;;26.10;14.93;;;;;;;0.22;78.05;99310.88;124905;1103;104143;-80
2021/01/27 03:55:41;;;;;;;24.17;14.30;;;;;;;0.23;78.46;99322.83;124811;1102;105768;-81
2021/01/27 03:58:21;;;;;;;20.43;13.27;;;;;;;0.23;78.45;99317.70;124908;1102;102352;-81
2021/01/27 04:00:50;;;;;;;24.77;14.60;;;;;;;0.23;78.33;99315.14;124909;1103;104147;-80
2021/01/27 04:03:21;;;;;;;23.30;13.23;;;;;;;0.23;78.37;99313.43;124905;1103;104271;-81
2021/01/27 04:05:48;;;;;;;22.17;12.70;;;;;;;0.23;78.44;99310.02;124956;1105;104134;-81
2021/01/27 04:08:16;;;;;;;22.60;13.00;;;;;;;0.23;78.15;99317.70;124909;1103;104110;-81
2021/01/27 04:10:43;;;;;;;17.77;11.37;;;;;;;0.23;78.15;99317.70;124884;1102;104139;-81
2021/01/27 04:13:10;;;;;;;20.53;12.60;;;;;;;0.23;77.76;99312.58;124886;1102;104302;-81
2021/01/27 04:15:37;;;;;;;20.60;12.80;;;;;;;0.24;77.70;99315.13;124820;1105;104217;-81
2021/01/27 04:18:05;;;;;;;21.20;12.17;;;;;;;0.23;77.63;99307.45;124901;1105;104194;-81
2021/01/27 04:20:32;;;;;;;20.37;11.70;;;;;;;0.22;77.68;99308.31;124897;1103;103390;-81
2021/01/27 04:23:00;;;;;;;18.43;12.03;;;;;;;0.24;77.62;99314.28;124911;1106;104184;-81
2021/01/27 04:25:27;;;;;;;19.63;11.90;;;;;;;0.24;77.90;99315.13;124828;1105;104165;-81
2021/01/27 04:27:54;;;;;;;20.07;12.23;;;;;;;0.26;77.90;99307.42;124870;1105;104111;-81
2021/01/27 04:30:25;;;;;;;20.53;12.17;;;;;;;0.26;77.93;99313.41;124899;1105;104195;-81
2021/01/27 04:32:52;;;;;;;20.63;12.20;;;;;;;0.28;78.05;99310.83;124910;1103;104107;-81
2021/01/27 04:35:19;;;;;;;21.87;11.40;;;;;;;0.26;78.06;99315.97;124884;1105;104233;-81
2021/01/27 04:37:47;;;;;;;19.20;11.12;;;;;;;0.28;77.90;99311.69;124891;1105;104349;-79
2021/01/27 04:40:21;;;;;;;18.57;11.80;;;;;;;0.25;77.42;99310.85;124837;1105;104286;-79
2021/01/27 04:42:50;;;;;;;18.45;10.50;;;;;;;0.24;77.82;99314.28;124893;1103;104261;-81
2021/01/27 04:45:18;;;;;;;19.75;11.30;;;;;;;0.21;77.54;99315.16;124882;1102;104172;-80
2021/01/27 04:48:08;;;;;;;16.30;10.50;;;;;;;0.20;77.64;99304.91;124899;1106;104636;-80
2021/01/27 04:50:46;;;;;;;21.57;12.33;;;;;;;0.19;77.46;99310.89;124901;1102;104095;-81
2021/01/27 04:53:41;;;;;;;19.17;11.00;;;;;;;0.17;77.67;99320.28;124959;1102;104354;-80
2021/01/27 04:56:40;;;;;;;21.33;11.20;;;;;;;0.17;78.03;99322.84;124901;1105;102738;-80
2021/01/27 04:59:43;;;;;;;18.50;11.10;;;;;;;0.15;78.20;99320.29;124934;1105;104108;-80
2021/01/27 05:02:22;;;;;;;16.10;9.90;;;;;;;0.13;78.01;99311.76;124873;1102;104156;-81
2021/01/27 05:05:03;;;;;;;17.13;9.67;;;;;;;0.12;77.86;99325.44;124896;1105;103133;-80
2021/01/27 05:07:45;;;;;;;20.10;10.93;;;;;;;0.10;78.08;99327.16;124947;1105;104178;-81
2021/01/27 05:10:17;;;;;;;19.20;10.23;;;;;;;0.12;78.13;99319.46;124966;1105;103963;-81
2021/01/27 05:12:55;;;;;;;15.40;10.07;;;;;;;0.10;77.76;99321.19;124901;1105;104255;-81
2021/01/27 05:15:24;;;;;;;16.37;9.63;;;;;;;0.09;78.00;99324.61;124850;1105;104197;-80
2021/01/27 05:17:52;;;;;;;15.83;9.60;;;;;;;0.07;77.75;99327.19;124926;1105;104079;-81
2021/01/27 05:20:21;;;;;;;17.77;9.23;;;;;;;0.06;77.54;99325.48;124921;1103;103963;-81
2021/01/27 05:22:48;;;;;;;16.57;9.10;;;;;;;0.07;77.89;99332.31;124893;1106;104210;-81
2021/01/27 05:25:43;;;;;;;11.80;7.77;;;;;;;0.06;77.47;99325.48;124876;1105;104191;-80
2021/01/27 05:28:17;;;;;;;13.77;8.13;;;;;;;0.04;77.65;99324.64;124937;1105;104150;-80
2021/01/27 05:30:54;;;;;;;13.83;7.40;;;;;;;0.04;77.36;99329.77;124922;1105;104245;-81
2021/01/27 05:33:49;;;;;;;13.47;8.03;;;;;;;0.05;77.28;99323.78;124919;1106;102356;-80
2021/01/27 05:36:21;;;;;;;11.10;6.70;;;;;;;0.07;77.47;99328.89;124851;1102;104261;-80
2021/01/27 05:38:48;;;;;;;12.80;7.37;;;;;;;0.05;77.20;99328.91;124890;1103;104181;-81
2021/01/27 05:41:25;;;;;;;12.10;7.53;;;;;;;0.05;77.50;99330.61;124910;1102;102514;-81
2021/01/27 05:44:05;;;;;;;10.77;6.73;;;;;;;0.06;77.16;99322.06;124925;1105;104467;-81
2021/01/27 05:46:35;;;;;;;10.13;6.30;;;;;;;0.08;76.77;99330.59;124818;1105;104159;-80
2021/01/27 05:49:09;;;;;;;10.10;6.37;;;;;;;0.07;76.84;99336.59;124905;1106;104162;-81
2021/01/27 05:51:38;;;;;;;11.73;6.43;;;;;;;0.05;76.60;99317.80;124808;1102;104213;-81
2021/01/27 05:54:24;;;;;;;11.73;6.43;;;;;;;0.04;76.29;99334.05;124950;1105;104159;-80
2021/01/27 05:56:53;;;;;;;9.63;6.50;;;;;;;0.04;76.29;99331.48;124879;1105;104821;-80
2021/01/27 05:59:24;;;;;;;10.90;6.00;;;;;;;0.03;76.26;99329.78;124936;1105;104267;-80
2021/01/27 06:02:00;;;;;;;10.53;6.60;;;;;;;0.03;75.99;99324.65;124884;1103;104281;-80
2021/01/27 06:04:31;;;;;;;9.47;5.20;;;;;;;0.03;76.02;99332.34;124931;1105;102767;-80
2021/01/27 06:07:04;;;;;;;8.97;5.90;;;;;;;0.02;75.73;99331.48;125001;1105;104214;-80
2021/01/27 06:09:45;;;;;;;9.87;5.60;;;;;;;0.04;76.35;99339.17;124931;1105;104209;-80
2021/01/27 06:12:18;;;;;;;8.63;4.80;;;;;;;0.04;76.07;99334.89;124905;1106;102520;-80
2021/01/27 06:14:48;;;;;;;8.57;5.20;;;;;;;0.04;75.90;99336.61;124931;1102;104044;-80
2021/01/27 06:17:24;;;;;;;8.80;4.93;;;;;;;0.05;75.56;99333.18;124967;1103;104166;-81
2021/01/27 06:20:13;;;;;;;6.87;4.33;;;;;;;0.05;75.73;99344.28;124887;1105;104136;-80
2021/01/27 06:23:18;;;;;;;6.33;4.43;;;;;;;0.05;75.25;99336.59;124911;1106;104743;-80
2021/01/27 06:26:06;;;;;;;6.47;3.87;;;;;;;0.05;75.26;99346.84;124866;1105;103967;-81
2021/01/27 06:29:25;;;;;;;6.00;3.80;;;;;;;0.04;74.96;99347.70;124898;1103;104233;-81
2021/01/27 06:32:20;;;;;;;6.75;4.10;;;;;;;0.03;74.54;99351.14;124640;1105;104272;-81
2021/01/27 06:34:59;;;;;;;7.93;3.60;;;;;;;0.05;75.40;99353.69;124663;1109;102469;-81
2021/01/27 06:37:47;;;;;;;4.93;3.30;;;;;;;0.04;74.71;99363.09;124686;1109;104252;-81
2021/01/27 06:40:31;;;;;;;6.13;3.13;;;;;;;0.06;74.70;99370.77;124533;1109;104348;-81
2021/01/27 06:43:20;;;;;;;5.97;3.30;;;;;;;0.08;74.80;99369.91;124588;1106;104179;-81
2021/01/27 06:45:59;;;;;;;8.87;4.77;;;;;;;0.09;74.21;99371.61;124634;1105;104118;-81
2021/01/27 06:48:54;;;;;;;6.83;3.33;;;;;;;0.09;74.71;99366.48;124644;1108;104150;-80
2021/01/27 06:51:41;;;;;;;5.57;3.20;;;;;;;0.11;74.45;99363.91;124631;1108;104200;-80
2021/01/27 06:54:23;;;;;;;4.55;2.90;;;;;;;0.12;74.15;99357.92;124669;1108;104281;-80
2021/01/27 06:57:25;;;;;;;5.23;3.10;;;;;;;0.13;74.50;99363.03;124584;1109;104297;-80
2021/01/27 07:00:27;;;;;;;6.43;3.40;;;;;;;0.13;74.41;99367.31;124641;1109;104124;-81
2021/01/27 07:02:57;;;;;;;6.33;3.17;;;;;;;0.14;74.07;99372.44;124644;1109;102130;-81
2021/01/27 07:05:46;;;;;;;6.53;3.10;;;;;;;0.16;74.19;99364.73;124586;1109;104178;-80
2021/01/27 07:08:44;;;;;;;6.50;3.20;;;;;;;0.16;74.30;99374.98;124802;1105;104136;-80
2021/01/27 07:11:18;;;;;;;5.27;3.20;;;;;;;0.16;73.47;99364.73;124942;1105;104153;-80
2021/01/27 07:14:16;;;;;;;6.10;3.17;;;;;;;0.17;73.92;99374.98;124886;1103;104548;-80
2021/01/27 07:16:52;;;;;;;6.23;3.00;;;;;;;0.18;73.59;99380.95;124887;1102;104130;-80
2021/01/27 07:19:58;;;;;;;3.60;2.42;;;;;;;0.18;74.07;99383.52;124899;1103;104254;-81
2021/01/27 07:22:33;;;;;;;4.90;3.10;;;;;;;0.22;73.44;99387.80;124594;1109;102820;-81
2021/01/27 07:25:13;;;;;;;11.53;5.80;;;;;;;0.24;73.39;99383.52;124640;1109;103954;-80
2021/01/27 07:28:11;;;;;;;4.15;2.70;;;;;;;0.26;73.46;99390.34;124565;1109;104328;-81
2021/01/27 07:30:46;;;;;;;6.12;3.17;;;;;;;0.29;73.80;99399.73;124609;1106;104282;-81
2021/01/27 07:33:20;;;;;;;6.73;3.20;;;;;;;0.30;72.94;99392.03;124641;1109;104503;-81
2021/01/27 07:36:32;;;;;;;4.00;3.00;;;;;;;0.34;73.45;99394.57;124637;1109;104281;-81
2021/01/27 07:39:07;;;;;;;6.83;3.53;;;;;;;0.36;73.34;99390.28;124325;1109;104232;-81
2021/01/27 07:41:51;;;;;;;9.00;4.97;;;;;;;0.36;73.18;99390.28;124388;1112;104133;-81
2021/01/27 07:44:20;;;;;;;11.63;5.40;;;;;;;0.38;73.08;99389.44;124361;1112;104281;-81
2021/01/27 07:47:02;;;;;;;8.77;4.90;;;;;;;0.39;72.91;99385.16;124289;1112;104283;-81
2021/01/27 07:49:41;;;;;;;7.27;4.17;;;;;;;0.38;72.91;99392.01;124307;1112;104299;-81
2021/01/27 07:52:24;;;;;;;7.77;3.97;;;;;;;0.38;73.06;99394.58;124360;1112;104264;-80
2021/01/27 07:55:26;;;;;;;10.53;4.70;;;;;;;0.37;73.16;99390.30;124300;1109;104163;-80
2021/01/27 07:58:13;;;;;;;6.20;3.60;;;;;;;0.35;72.78;99399.69;124389;1112;104166;-80
2021/01/27 08:00:56;;;;;;;5.20;3.72;;;;;;;0.34;73.72;99408.25;124628;1109;104188;-80
2021/01/27 08:03:33;;;;;;;4.60;3.40;;;;;;;0.34;73.86;99403.12;124572;1109;104130;-80
2021/01/27 08:06:01;;;;;;;;;;;;;;;0.34;74.02;99412.52;124616;1106;104293;-80
2021/01/27 08:08:30;;;;;;;6.37;4.20;;;;;;;0.32;74.05;99414.25;124656;1109;102849;-80
2021/01/27 08:11:11;;;;;;;6.40;4.27;;;;;;;0.32;74.56;99417.66;124594;1106;104181;-80
2021/01/27 08:13:42;;;;;;;7.57;4.77;;;;;;;0.31;74.76;99413.39;124644;1106;104269;-80
2021/01/27 08:16:13;;;;;;;7.97;4.97;;;;;;;0.29;74.82;99426.23;124714;1105;104129;-80
2021/01/27 08:19:12;;;;;;;7.77;5.13;;;;;;;0.30;74.82;99421.95;124908;1105;104395;-80
2021/01/27 08:21:45;;;;;;;10.05;5.50;;;;;;;0.30;75.22;99422.80;124885;1105;104230;-80
2021/01/27 08:24:35;;;;;;;7.37;5.10;;;;;;;0.29;75.34;99425.38;124928;1105;104140;-80
2021/01/27 08:27:14;;;;;;;9.07;5.60;;;;;;;0.29;75.39;99430.50;124919;1102;104213;-82
2021/01/27 08:29:54;;;;;;;8.23;5.80;;;;;;;0.29;75.75;99430.50;124949;1105;104085;-82
2021/01/27 08:32:22;;;;;;;8.40;5.10;;;;;;;0.32;75.93;99433.05;124876;1105;104137;-82
2021/01/27 08:34:51;;;;;;;12.67;6.33;;;;;;;0.30;75.85;99432.21;124934;1103;104130;-82
2021/01/27 08:37:25;;;;;;;11.30;6.17;;;;;;;0.33;75.48;99441.59;124968;1105;104243;-80
2021/01/27 08:40:28;;;;;;;9.63;6.43;;;;;;;0.33;75.90;99445.02;124836;1105;104181;-81
2021/01/27 08:42:58;;;;;;;13.20;8.33;;;;;;;0.33;75.84;99442.45;124898;1105;103153;-81
2021/01/27 08:45:33;;;;;;;14.13;7.87;;;;;;;0.35;76.13;99440.73;125028;1105;104141;-81
2021/01/27 08:48:04;;;;;;;10.80;6.30;;;;;;;0.33;75.90;99445.02;124966;1102;104201;-80
2021/01/27 08:50:48;;;;;;;11.70;6.80;;;;;;;0.33;76.26;99439.89;124926;1105;104178;-80
2021/01/27 08:53:21;;;;;;;13.83;7.40;;;;;;;0.34;76.01;99439.02;124912;1105;104324;-80
2021/01/27 08:55:57;;;;;;;12.97;7.07;;;;;;;0.39;75.96;99436.47;124839;1105;104213;-80
2021/01/27 08:58:39;;;;;;;13.85;8.00;;;;;;;0.41;76.07;99440.73;124991;1105;103049;-80
2021/01/27 09:01:31;;;;;;;10.70;6.90;;;;;;;0.44;75.93;99448.41;124857;1105;104273;-80
2021/01/27 09:04:01;;;;;;;11.97;7.23;;;;;;;0.46;75.93;99448.40;124921;1102;104137;-81
2021/01/27 09:06:31;;;;;;;15.65;6.95;;;;;;;0.49;75.63;99448.38;124878;1105;102650;-81
2021/01/27 09:09:23;;;;;;;11.33;6.53;;;;;;;0.52;75.87;99444.08;124889;1105;104284;-81
2021/01/27 09:12:07;;;;;;;10.83;6.03;;;;;;;0.58;75.77;99448.35;124919;1105;104528;-82
2021/01/27 09:14:35;;;;;;;11.67;5.70;;;;;;;0.56;75.22;99458.63;124943;1103;104131;-82
2021/01/27 09:17:06;;;;;;;11.50;5.70;;;;;;;0.59;75.46;99456.04;124878;1103;104617;-81
2021/01/27 09:19:37;;;;;;;9.10;5.65;;;;;;;0.63;75.09;99456.88;124892;1102;104322;-80
2021/01/27 09:22:24;;;;;;;10.37;5.57;;;;;;;0.64;74.90;99458.58;124932;1105;104201;-81
2021/01/27 09:24:55;;;;;;;8.93;6.03;;;;;;;0.66;74.75;99456.00;124903;1105;103967;-81
2021/01/27 09:27:30;;;;;;;9.43;5.27;;;;;;;0.66;74.83;99456.85;124896;1105;104190;-81
2021/01/27 09:30:10;;;;;;;11.27;4.50;;;;;;;0.67;74.82;99468.82;124935;1105;104136;-81
2021/01/27 09:32:41;;;;;;;7.33;4.03;;;;;;;0.64;74.37;99458.58;124969;1102;104172;-81
2021/01/27 09:35:27;;;;;;;8.13;4.20;;;;;;;0.64;74.47;99458.58;124901;1103;104258;-81
2021/01/27 09:38:00;;;;;;;7.97;3.77;;;;;;;0.65;74.35;99459.42;124898;1103;105098;-81
2021/01/27 09:40:35;;;;;;;7.63;4.20;;;;;;;0.66;73.70;99467.12;124914;1105;104206;-81
2021/01/27 09:43:08;;;;;;;6.23;4.00;;;;;;;0.67;73.65;99458.55;124883;1106;104128;-81
2021/01/27 09:45:38;;;;;;;8.93;5.10;;;;;;;0.69;73.55;99461.11;124950;1105;104101;-81
2021/01/27 09:48:07;;;;;;;7.17;3.80;;;;;;;0.68;72.97;99460.27;124883;1105;103745;-81
2021/01/27 09:50:38;;;;;;;6.10;3.47;;;;;;;0.68;73.23;99464.54;124942;1105;104082;-81
2021/01/27 09:53:07;;;;;;;5.73;3.43;;;;;;;0.69;73.03;99463.67;124941;1104;104178;-80
2021/01/27 09:55:34;;;;;;;4.67;2.70;;;;;;;0.69;72.99;99466.25;124966;1102;104265;-81
2021/01/27 09:58:05;;;;;;;4.47;2.97;;;;;;;0.66;72.91;99461.98;124971;1102;104299;-81
2021/01/27 10:00:37;;;;;;;6.27;3.10;;;;;;;0.66;72.64;99471.40;124944;1105;104223;-81
2021/01/27 10:03:27;;;;;;;5.23;3.43;;;;;;;0.66;73.02;99467.12;124930;1103;104168;-81
2021/01/27 10:05:55;;;;;;;7.20;3.77;;;;;;;0.69;72.72;99466.25;124972;1103;104200;-81
2021/01/27 10:08:32;;;;;;;7.03;3.93;;;;;;;0.71;72.94;99461.95;124963;1105;102246;-81
2021/01/27 10:11:31;;;;;;;6.90;4.17;;;;;;;0.74;72.81;99456.83;124961;1106;102862;-81
2021/01/27 10:14:11;;;;;;;6.77;3.70;;;;;;;0.76;72.82;99457.67;124884;1105;104277;-81
2021/01/27 10:16:54;;;;;;;12.07;5.60;;;;;;;0.75;72.42;99467.09;124977;1105;104262;-81
2021/01/27 10:19:25;;;;;;;11.93;5.67;;;;;;;0.76;72.55;99473.08;124959;1103;104204;-81
2021/01/27 10:21:55;;;;;;;7.80;4.43;;;;;;;0.78;72.51;99461.94;124971;1105;104661;-81
2021/01/27 10:24:49;;;;;;;8.67;4.50;;;;;;;0.81;72.56;99467.05;124949;1106;104643;-81
2021/01/27 10:27:22;;;;;;;8.90;4.37;;;;;;;0.84;72.18;99463.61;124937;1102;104047;-81
2021/01/27 10:29:51;;;;;;;6.83;3.60;;;;;;;0.83;72.15;99467.89;124922;1106;104147;-81
2021/01/27 10:32:20;;;;;;;7.00;3.80;;;;;;;0.85;72.43;99462.74;124952;1102;104021;-81
2021/01/27 10:34:49;;;;;;;7.43;3.77;;;;;;;0.87;72.44;99458.45;124947;1105;102245;-82
2021/01/27 10:37:37;;;;;;;8.97;4.57;;;;;;;0.88;72.66;99458.44;124935;1106;104204;-81
2021/01/27 10:40:25;;;;;;;9.03;4.20;;;;;;;0.91;72.72;99460.16;124897;1105;103961;-81
2021/01/27 10:42:59;;;;;;;6.63;3.80;;;;;;;0.94;72.16;99452.44;124923;1105;104075;-81
2021/01/27 10:45:26;;;;;;;7.57;3.80;;;;;;;0.95;72.57;99461.84;124972;1103;104133;-82
2021/01/27 10:48:28;;;;;;;6.10;4.03;;;;;;;0.99;72.40;99466.09;124945;1102;104104;-79
2021/01/27 10:51:06;;;;;;;8.30;3.93;;;;;;;0.99;71.76;99460.95;124914;1105;104149;-82
2021/01/27 10:53:40;;;;;;;8.50;4.00;;;;;;;1.00;71.84;99462.66;124860;1105;104150;-82
2021/01/27 10:56:12;;;;;;;7.45;4.20;;;;;;;1.01;71.66;99463.52;124875;1105;104104;-81
2021/01/27 10:58:40;;;;;;;8.00;4.03;;;;;;;0.99;71.16;99450.69;124963;1103;104159;-82
2021/01/27 11:01:07;;;;;;;7.07;3.90;;;;;;;0.99;71.54;99462.67;124923;1102;104191;-82
2021/01/27 11:03:34;;;;;;;6.57;3.77;;;;;;;1.02;71.93;99465.21;124953;1102;104215;-82
2021/01/27 11:06:04;;;;;;;6.97;3.83;;;;;;;1.04;72.24;99459.20;124841;1105;104104;-82
2021/01/27 11:08:33;;;;;;;7.77;3.93;;;;;;;1.04;71.49;99455.78;124909;1105;104211;-83
2021/01/27 11:11:04;;;;;;;7.60;3.93;;;;;;;1.01;71.90;99461.80;124916;1103;104098;-82
2021/01/27 11:13:34;;;;;;;6.50;3.77;;;;;;;1.00;71.82;99454.95;124845;1102;104220;-83
2021/01/27 11:16:03;;;;;;;8.20;4.35;;;;;;;0.99;71.86;99450.69;124984;1105;104134;-81
2021/01/27 11:18:30;;;;;;;8.13;4.40;;;;;;;1.02;72.07;99460.93;124891;1105;104135;-81
2021/01/27 11:20:58;;;;;;;7.53;4.40;;;;;;;1.04;72.12;99456.63;124925;1105;104178;-81
2021/01/27 11:23:25;;;;;;;7.20;4.50;;;;;;;1.07;71.64;99454.04;125274;1103;103984;-82
2021/01/27 11:25:53;;;;;;;8.10;4.80;;;;;;;1.09;71.64;99467.75;125456;1102;102844;-82
2021/01/27 11:28:22;;;;;;;6.97;4.30;;;;;;;1.13;71.61;99469.43;125218;1102;104172;-82
2021/01/27 11:30:51;;;;;;;8.63;4.50;;;;;;;1.13;71.96;99476.28;124906;1105;103983;-83
2021/01/27 11:33:23;;;;;;;8.00;3.93;;;;;;;1.13;71.96;99473.72;124948;1106;101624;-82
2021/01/27 11:35:52;;;;;;;7.57;4.13;;;;;;;1.12;71.83;99482.28;124922;1105;104128;-81
2021/01/27 11:38:20;;;;;;;8.83;4.47;;;;;;;1.12;71.70;99478.00;124948;1102;104120;-80
2021/01/27 11:40:48;;;;;;;9.63;4.87;;;;;;;1.13;71.61;99472.00;124934;1103;102905;-80
2021/01/27 11:43:15;;;;;;;7.47;4.83;;;;;;;1.14;71.43;99475.42;124858;1105;104101;-80
2021/01/27 11:45:43;;;;;;;8.80;4.90;;;;;;;1.12;71.40;99475.44;124900;1102;104158;-81
2021/01/27 11:48:31;;;;;;;8.13;4.50;;;;;;;1.12;71.60;99475.44;124872;1103;104159;-81
2021/01/27 11:50:59;;;;;;;9.17;5.00;;;;;;;1.10;71.46;99469.45;124899;1105;104283;-81
2021/01/27 11:53:27;;;;;;;10.20;5.75;;;;;;;1.10;71.81;99474.59;124924;1105;104153;-81
2021/01/27 11:55:54;;;;;;;8.47;5.47;;;;;;;1.06;70.95;99475.45;124822;1106;104163;-81